createdAt,value
2023-01-01T00:01:56.394Z,72.42
2023-01-01T00:04:00.081Z,72.65
2023-01-01T00:06:05.827Z,71.96
2023-01-01T00:08:07.538Z,71.76
2023-01-01T00:10:10.430Z,71.37
2023-01-01T00:12:13.321Z,70.24
2023-01-01T00:14:14.969Z,70.17
2023-01-01T00:16:16.504Z,70.68
2023-01-01T00:18:18.114Z,70.08
2023-01-01T00:20:21.027Z,69.42
2023-01-01T00:24:44.078Z,69.07
2023-01-01T00:26:45.872Z,68.83
2023-01-01T00:28:48.783Z,68.51
2023-01-01T00:30:50.371Z,68.27
2023-01-01T00:32:54.864Z,68.71
2023-01-01T00:34:57.945Z,68.32
2023-01-01T00:37:01.569Z,67.50
2023-01-01T00:39:03.902Z,67.23
2023-01-01T00:41:05.711Z,67.77
2023-01-01T00:43:07.331Z,67.29
2023-01-01T00:45:15.555Z,66.57
2023-01-01T00:47:20.640Z,65.93
2023-01-01T00:49:22.170Z,65.76
2023-01-01T00:51:23.826Z,65.81
2023-01-01T00:53:25.855Z,65.24
2023-01-01T00:55:27.385Z,64.82
2023-01-01T00:57:29.058Z,64.40
2023-01-01T00:59:30.789Z,65.07
2023-01-01T01:01:33.769Z,64.96
2023-01-01T01:03:37.854Z,65.08
2023-01-01T01:05:39.473Z,64.66
2023-01-01T01:07:41.487Z,64.50
2023-01-01T01:09:43.057Z,64.73
2023-01-01T01:11:44.633Z,64.36
2023-01-01T01:13:48.278Z,63.60
2023-01-01T01:15:56.087Z,64.15
2023-01-01T01:18:02.225Z,64.02
2023-01-01T01:20:05.544Z,63.79
2023-01-01T01:22:07.111Z,64.77
2023-01-01T01:24:10.071Z,64.32
2023-01-01T01:26:14.979Z,63.78
2023-01-01T01:28:16.551Z,63.56
2023-01-01T01:30:18.178Z,63.18
2023-01-01T01:32:20.324Z,63.64
2023-01-01T01:34:27.835Z,62.72
2023-01-01T01:36:30.168Z,63.62
2023-01-01T01:38:31.924Z,62.74
2023-01-01T01:40:33.681Z,62.30
2023-01-01T01:42:35.295Z,62.17
2023-01-01T01:44:52.967Z,63.31
2023-01-01T01:46:56.240Z,62.22
2023-01-01T01:49:04.206Z,61.89
2023-01-01T01:51:08.175Z,61.72
2023-01-01T01:53:15.407Z,61.50
2023-01-01T01:55:17.233Z,62.04
2023-01-01T01:57:19.215Z,62.00
2023-01-01T01:59:24.782Z,60.91
2023-01-01T02:01:27.019Z,62.23
2023-01-01T02:03:33.157Z,60.95
2023-01-01T02:05:35.700Z,61.64
2023-01-01T02:07:39.540Z,61.24
2023-01-01T02:09:41.604Z,76.34
2023-01-01T02:11:43.225Z,76.21
2023-01-01T02:13:44.867Z,69.56
2023-01-01T02:15:53.091Z,70.82
2023-01-01T02:18:01.234Z,63.55
2023-01-01T02:20:31.828Z,65.10
2023-01-01T02:22:52.295Z,58.26
2023-01-01T02:25:05.317Z,58.78
2023-01-01T02:27:15.875Z,59.34
2023-01-01T02:29:31.588Z,59.51
2023-01-01T02:31:39.091Z,59.84
2023-01-01T02:33:42.562Z,60.19
2023-01-01T02:35:52.092Z,60.15
2023-01-01T02:37:59.462Z,61.05
2023-01-01T02:40:02.539Z,60.83
2023-01-01T02:42:07.087Z,60.90
2023-01-01T02:44:08.847Z,60.62
2023-01-01T02:48:40.285Z,61.15
2023-01-01T02:50:45.249Z,60.99
2023-01-01T02:52:56.755Z,61.50
2023-01-01T02:55:07.205Z,61.46
2023-01-01T02:57:15.407Z,61.10
2023-01-01T02:59:25.273Z,61.47
2023-01-01T03:01:36.373Z,61.33
2023-01-01T03:03:42.856Z,61.83
2023-01-01T03:05:53.294Z,61.52
2023-01-01T03:08:08.266Z,62.08
2023-01-01T03:10:14.453Z,62.00
2023-01-01T03:12:24.021Z,61.83
2023-01-01T03:14:37.582Z,62.08
2023-01-01T03:16:45.991Z,62.16
2023-01-01T03:18:56.371Z,61.55
2023-01-01T03:21:01.735Z,62.13
2023-01-01T03:23:07.410Z,62.19
2023-01-01T03:25:16.956Z,62.06
2023-01-01T03:27:24.174Z,63.01
2023-01-01T03:29:30.074Z,62.37
2023-01-01T03:31:33.324Z,63.32
2023-01-01T03:33:41.695Z,62.99
2023-01-01T03:35:48.116Z,63.24
2023-01-01T03:37:51.509Z,63.12
2023-01-01T03:39:59.231Z,62.73
2023-01-01T03:42:06.307Z,63.22
2023-01-01T03:44:13.338Z,63.65
2023-01-01T03:46:19.265Z,63.91
2023-01-01T03:48:21.036Z,64.55
2023-01-01T03:50:32.007Z,64.09
2023-01-01T03:52:43.284Z,63.69
2023-01-01T03:54:55.221Z,63.51
2023-01-01T03:57:03.609Z,63.26
2023-01-01T03:59:14.933Z,63.65
2023-01-01T04:01:23.592Z,64.07
2023-01-01T04:03:28.235Z,63.88
2023-01-01T04:05:32.364Z,63.64
2023-01-01T04:07:34.968Z,64.45
2023-01-01T04:09:40.526Z,65.15
2023-01-01T04:11:44.644Z,64.01
2023-01-01T04:13:49.345Z,64.03
2023-01-01T04:15:51.406Z,64.56
2023-01-01T04:17:54.696Z,64.83
2023-01-01T04:19:59.952Z,65.05
2023-01-01T04:22:03.922Z,64.58
2023-01-01T04:24:08.062Z,64.71
2023-01-01T04:26:15.960Z,65.01
2023-01-01T04:28:17.416Z,65.85
2023-01-01T04:30:21.933Z,64.83
2023-01-01T04:32:25.418Z,65.43
2023-01-01T04:34:27.140Z,64.53
2023-01-01T04:36:28.777Z,65.47
2023-01-01T04:38:33.423Z,64.70
2023-01-01T04:40:35.023Z,65.48
2023-01-01T04:42:36.694Z,65.18
2023-01-01T04:44:38.341Z,65.21
2023-01-01T04:46:39.897Z,64.64
2023-01-01T04:48:41.427Z,65.40
2023-01-01T04:50:43.212Z,65.23
2023-01-01T04:52:44.807Z,65.22
2023-01-01T04:54:47.780Z,65.49
2023-01-01T04:56:49.395Z,65.43
2023-01-01T04:58:50.947Z,64.69
2023-01-01T05:00:52.536Z,65.33
2023-01-01T05:02:54.219Z,64.94
2023-01-01T05:04:55.795Z,64.79
2023-01-01T05:06:57.420Z,64.91
2023-01-01T05:08:59.285Z,64.67
2023-01-01T05:11:03.509Z,65.40
2023-01-01T05:13:07.492Z,65.09
2023-01-01T05:15:10.038Z,64.87
2023-01-01T05:17:13.196Z,64.48
2023-01-01T05:19:14.761Z,64.87
2023-01-01T05:21:17.956Z,65.20
2023-01-01T05:23:19.530Z,65.90
2023-01-01T05:25:21.102Z,64.80
2023-01-01T05:27:24.090Z,64.92
2023-01-01T05:29:25.654Z,64.80
2023-01-01T05:31:29.074Z,64.73
2023-01-01T05:33:30.677Z,65.15
2023-01-01T05:35:32.236Z,65.52
2023-01-01T05:37:33.873Z,65.84
2023-01-01T05:39:35.491Z,65.50
2023-01-01T05:41:37.309Z,66.02
2023-01-01T05:43:42.898Z,66.29
2023-01-01T05:45:44.999Z,66.27
2023-01-01T05:47:46.574Z,67.58
2023-01-01T05:49:48.124Z,67.75
2023-01-01T05:51:49.767Z,67.73
2023-01-01T05:53:51.723Z,67.86
2023-01-01T05:55:53.477Z,67.93
2023-01-01T05:57:55.058Z,68.40
2023-01-01T05:59:58.158Z,69.57
2023-01-01T06:01:59.789Z,68.65
2023-01-01T06:04:01.551Z,68.78
2023-01-01T06:06:04.751Z,68.72
2023-01-01T06:08:06.385Z,69.49
2023-01-01T06:10:08.706Z,68.41
2023-01-01T06:12:10.262Z,69.07
2023-01-01T06:14:11.813Z,69.11
2023-01-01T06:16:15.067Z,68.76
2023-01-01T06:18:16.754Z,69.15
2023-01-01T06:20:20.971Z,69.04
2023-01-01T06:22:22.622Z,68.72
2023-01-01T06:24:24.198Z,68.99
2023-01-01T06:26:27.480Z,68.75
2023-01-01T06:28:30.439Z,68.08
2023-01-01T06:30:32.023Z,68.08
2023-01-01T06:32:34.981Z,67.45
2023-01-01T06:34:36.645Z,67.87
2023-01-01T06:36:38.489Z,67.79
2023-01-01T06:38:42.107Z,67.49
2023-01-01T06:40:43.672Z,67.13
2023-01-01T06:42:45.371Z,67.08
2023-01-01T06:44:46.930Z,66.86
2023-01-01T06:46:48.628Z,66.91
2023-01-01T06:48:56.891Z,66.74
2023-01-01T06:50:58.986Z,66.33
2023-01-01T06:53:00.555Z,66.71
2023-01-01T06:55:02.081Z,66.12
2023-01-01T06:57:03.778Z,66.05
2023-01-01T06:59:05.734Z,65.49
2023-01-01T07:01:10.767Z,65.63
2023-01-01T07:03:12.458Z,66.34
2023-01-01T07:05:15.534Z,66.25
2023-01-01T07:07:17.202Z,66.67
2023-01-01T07:09:18.753Z,66.04
2023-01-01T07:11:20.790Z,66.40
2023-01-01T07:13:22.375Z,65.91
2023-01-01T07:15:23.947Z,66.61
2023-01-01T07:17:25.525Z,65.61
2023-01-01T07:19:27.046Z,66.25
2023-01-01T07:21:31.649Z,66.72
2023-01-01T07:23:35.118Z,66.53
2023-01-01T07:25:36.692Z,66.16
2023-01-01T07:27:38.223Z,66.34
2023-01-01T07:29:39.772Z,66.15
2023-01-01T07:31:42.847Z,65.54
2023-01-01T07:33:44.458Z,65.83
2023-01-01T07:35:46.376Z,65.62
2023-01-01T07:37:49.309Z,66.00
2023-01-01T07:39:50.817Z,65.82
2023-01-01T07:41:52.411Z,65.98
2023-01-01T07:43:54.008Z,65.91
2023-01-01T07:45:55.647Z,65.71
2023-01-01T07:47:58.959Z,65.40
2023-01-01T07:50:00.561Z,65.93
2023-01-01T07:52:02.091Z,65.32
2023-01-01T07:54:07.391Z,65.37
2023-01-01T07:56:09.557Z,65.80
2023-01-01T07:58:11.784Z,65.35
2023-01-01T08:00:15.968Z,65.68
2023-01-01T08:02:17.624Z,65.15
2023-01-01T08:04:19.280Z,65.49
2023-01-01T08:06:21.383Z,65.58
2023-01-01T08:08:23.035Z,65.75
2023-01-01T08:10:25.964Z,65.97
2023-01-01T08:12:27.980Z,65.91
2023-01-01T08:14:29.700Z,67.07
2023-01-01T08:16:31.484Z,65.78
2023-01-01T08:18:33.304Z,65.81
2023-01-01T08:20:34.951Z,66.37
2023-01-01T08:22:36.513Z,65.83
2023-01-01T08:24:38.170Z,65.54
2023-01-01T08:26:41.137Z,66.02
2023-01-01T08:28:44.659Z,65.76
2023-01-01T08:30:46.333Z,65.47
2023-01-01T08:32:49.793Z,65.59
2023-01-01T08:34:51.320Z,66.19
2023-01-01T08:36:52.931Z,65.92
2023-01-01T08:38:54.482Z,65.73
2023-01-01T08:40:56.053Z,64.77
2023-01-01T08:42:59.031Z,65.63
2023-01-01T08:45:00.612Z,65.64
2023-01-01T08:47:02.218Z,65.14
2023-01-01T08:49:04.402Z,65.10
2023-01-01T08:51:10.141Z,64.92
2023-01-01T08:53:11.704Z,65.20
2023-01-01T08:55:13.345Z,65.15
2023-01-01T08:57:14.908Z,64.61
2023-01-01T08:59:17.905Z,65.12
2023-01-01T09:01:19.745Z,64.64
2023-01-01T09:03:21.907Z,64.71
2023-01-01T09:05:23.528Z,64.76
2023-01-01T09:07:25.180Z,65.51
2023-01-01T09:09:31.333Z,64.93
2023-01-01T09:11:33.605Z,65.27
2023-01-01T09:13:35.770Z,65.15
2023-01-01T09:15:39.058Z,65.63
2023-01-01T09:17:40.572Z,65.91
2023-01-01T09:19:42.241Z,65.56
2023-01-01T09:21:43.823Z,66.41
2023-01-01T09:23:45.375Z,65.51
2023-01-01T09:25:46.932Z,66.10
2023-01-01T09:27:48.468Z,65.49
2023-01-01T09:29:50.005Z,65.01
2023-01-01T09:31:53.020Z,66.19
2023-01-01T09:33:54.608Z,65.96
2023-01-01T09:36:11.930Z,66.31
2023-01-01T09:38:13.754Z,65.71
2023-01-01T09:40:24.103Z,65.61
2023-01-01T09:42:38.015Z,65.93
2023-01-01T09:44:57.640Z,65.31
2023-01-01T09:47:03.775Z,65.27
2023-01-01T09:49:12.259Z,65.28
2023-01-01T09:51:18.039Z,65.44
2023-01-01T09:53:31.625Z,64.65
2023-01-01T09:55:41.737Z,65.01
2023-01-01T09:57:43.320Z,64.32
2023-01-01T09:59:45.071Z,65.26
2023-01-01T10:01:53.101Z,64.72
2023-01-01T10:04:05.548Z,64.68
2023-01-01T10:06:18.860Z,64.85
2023-01-01T10:08:34.706Z,64.45
2023-01-01T10:10:40.081Z,64.22
2023-01-01T10:12:49.648Z,64.13
2023-01-01T10:15:00.655Z,64.10
2023-01-01T10:17:09.394Z,63.84
2023-01-01T10:19:22.617Z,64.14
2023-01-01T10:21:27.240Z,66.32
2023-01-01T10:23:33.791Z,68.75
2023-01-01T10:25:36.645Z,63.59
2023-01-01T10:27:44.344Z,64.39
2023-01-01T10:29:47.860Z,60.81
2023-01-01T10:31:50.353Z,63.48
2023-01-01T10:33:52.125Z,63.05
2023-01-01T10:35:55.596Z,62.27
2023-01-01T10:37:59.179Z,60.14
2023-01-01T10:40:06.272Z,60.48
2023-01-01T10:42:11.777Z,61.02
2023-01-01T10:44:15.890Z,61.46
2023-01-01T10:46:27.614Z,62.26
2023-01-01T10:48:32.275Z,62.18
2023-01-01T10:50:43.019Z,62.41
2023-01-01T10:52:56.289Z,62.85
2023-01-01T10:55:00.283Z,63.28
2023-01-01T10:57:14.007Z,63.84
2023-01-01T10:59:37.657Z,63.15
2023-01-01T11:01:39.436Z,63.32
2023-01-01T11:03:54.635Z,63.49
2023-01-01T11:06:05.634Z,63.27
2023-01-01T11:08:18.519Z,63.15
2023-01-01T11:10:22.711Z,63.16
2023-01-01T11:13:02.985Z,62.26
2023-01-01T11:14:53.060Z,62.88
2023-01-01T11:16:55.966Z,62.90
2023-01-01T11:19:05.783Z,62.45
2023-01-01T11:21:07.982Z,61.90
2023-01-01T11:23:30.172Z,61.96
2023-01-01T11:25:31.765Z,61.82
2023-01-01T11:27:33.377Z,61.85
2023-01-01T11:29:34.976Z,62.33
2023-01-01T11:31:39.720Z,62.15
2023-01-01T11:33:46.254Z,62.26
2023-01-01T11:35:50.412Z,62.25
2023-01-01T11:37:53.453Z,62.75
2023-01-01T11:39:58.693Z,62.65
2023-01-01T11:42:00.233Z,62.42
2023-01-01T11:44:01.800Z,62.72
2023-01-01T11:46:07.809Z,63.13
2023-01-01T11:48:14.650Z,62.75
2023-01-01T11:50:23.292Z,62.43
2023-01-01T11:52:34.276Z,62.20
2023-01-01T11:54:36.059Z,62.50
2023-01-01T11:56:40.038Z,62.63
2023-01-01T11:58:50.757Z,62.66
2023-01-01T12:00:55.864Z,63.44
2023-01-01T12:03:01.043Z,63.58
2023-01-01T12:05:13.496Z,63.87
2023-01-01T12:07:20.157Z,63.73
2023-01-01T12:09:28.476Z,63.40
2023-01-01T12:11:36.414Z,63.17
2023-01-01T12:13:45.480Z,63.64
2023-01-01T12:15:56.797Z,63.48
2023-01-01T12:18:03.603Z,63.78
2023-01-01T12:20:12.233Z,63.87
2023-01-01T12:22:18.028Z,64.01
2023-01-01T12:24:20.557Z,63.40
2023-01-01T12:26:25.354Z,63.96
2023-01-01T12:28:38.623Z,64.56
2023-01-01T12:30:49.716Z,64.61
2023-01-01T12:33:08.863Z,64.35
2023-01-01T12:35:21.447Z,65.48
2023-01-01T12:37:47.324Z,64.95
2023-01-01T12:40:24.809Z,65.05
2023-01-01T12:42:39.713Z,65.74
2023-01-01T12:44:53.655Z,66.59
2023-01-01T12:47:03.137Z,66.29
2023-01-01T12:49:41.787Z,65.92
2023-01-01T12:51:56.293Z,66.16
2023-01-01T12:54:29.009Z,66.61
2023-01-01T12:56:35.626Z,67.00
2023-01-01T12:58:41.211Z,66.84
2023-01-01T13:00:49.358Z,66.91
2023-01-01T13:02:57.309Z,66.97
2023-01-01T13:05:04.532Z,67.36
2023-01-01T13:07:11.725Z,67.78
2023-01-01T13:09:15.900Z,68.30
2023-01-01T13:11:18.216Z,67.80
2023-01-01T13:13:20.119Z,67.93
2023-01-01T13:15:46.845Z,68.22
2023-01-01T13:17:53.668Z,67.88
2023-01-01T13:19:58.562Z,68.15
2023-01-01T13:22:21.065Z,68.04
2023-01-01T13:24:24.396Z,68.79
2023-01-01T13:26:40.437Z,68.56
2023-01-01T13:28:42.072Z,68.71
2023-01-01T13:30:51.575Z,68.18
2023-01-01T13:33:20.062Z,68.45
2023-01-01T13:35:25.026Z,69.46
2023-01-01T13:37:44.891Z,69.46
2023-01-01T13:39:54.234Z,70.29
2023-01-01T13:41:55.937Z,69.56
2023-01-01T13:44:16.425Z,69.58
2023-01-01T13:46:23.312Z,70.01
2023-01-01T13:48:42.365Z,69.92
2023-01-01T13:50:54.840Z,69.99
2023-01-01T13:53:22.255Z,70.15
2023-01-01T13:55:46.615Z,70.39
2023-01-01T13:58:20.094Z,71.40
2023-01-01T14:00:23.780Z,70.78
2023-01-01T14:02:29.095Z,71.42
2023-01-01T14:04:37.986Z,72.06
2023-01-01T14:06:42.905Z,72.43
2023-01-01T14:08:44.428Z,71.79
2023-01-01T14:10:49.818Z,71.54
2023-01-01T14:12:53.362Z,71.65
2023-01-01T14:14:54.899Z,72.06
2023-01-01T14:16:58.451Z,72.42
2023-01-01T14:19:01.003Z,72.10
2023-01-01T14:21:09.178Z,71.56
2023-01-01T14:23:16.101Z,72.38
2023-01-01T14:25:29.344Z,72.20
2023-01-01T14:27:30.978Z,71.96
2023-01-01T14:29:32.933Z,73.03
2023-01-01T14:31:36.992Z,72.88
2023-01-01T14:33:39.184Z,72.56
2023-01-01T14:35:51.592Z,72.83
2023-01-01T14:37:54.802Z,73.47
2023-01-01T14:40:08.010Z,74.00
2023-01-01T14:42:15.288Z,74.42
2023-01-01T14:44:20.067Z,74.28
2023-01-01T14:46:24.804Z,74.25
2023-01-01T14:48:26.904Z,74.59
2023-01-01T14:50:30.882Z,74.82
2023-01-01T14:52:35.975Z,75.09
2023-01-01T14:54:42.089Z,75.68
2023-01-01T14:56:47.247Z,75.57
2023-01-01T14:58:49.187Z,76.12
2023-01-01T15:00:51.577Z,76.43
2023-01-01T15:02:53.309Z,76.47
2023-01-01T15:04:56.427Z,76.43
2023-01-01T15:07:00.249Z,79.84
2023-01-01T15:09:01.845Z,79.83
2023-01-01T15:11:05.044Z,79.83
2023-01-01T15:13:08.046Z,77.23
2023-01-01T15:15:34.626Z,76.98
2023-01-01T15:17:46.075Z,77.66
2023-01-01T15:20:02.733Z,78.97
2023-01-01T15:22:10.594Z,79.45
2023-01-01T15:24:14.654Z,79.23
2023-01-01T15:26:27.001Z,79.20
2023-01-01T15:28:28.617Z,78.89
2023-01-01T15:30:32.581Z,80.06
2023-01-01T15:32:36.875Z,80.08
2023-01-01T15:34:42.693Z,80.71
2023-01-01T15:36:44.239Z,80.20
2023-01-01T15:38:48.055Z,79.94
2023-01-01T15:40:53.500Z,79.68
2023-01-01T15:43:15.615Z,79.05
2023-01-01T15:45:23.235Z,79.75
2023-01-01T15:47:24.904Z,80.48
2023-01-01T15:49:27.855Z,80.26
2023-01-01T15:51:29.861Z,80.95
2023-01-01T15:53:44.808Z,80.01
2023-01-01T15:55:54.279Z,80.95
2023-01-01T15:57:56.941Z,81.07
2023-01-01T16:00:00.132Z,80.54
2023-01-01T16:02:12.197Z,81.93
2023-01-01T16:04:25.862Z,81.20
2023-01-01T16:06:30.195Z,81.46
2023-01-01T16:08:31.823Z,81.17
2023-01-01T16:10:33.429Z,81.92
2023-01-01T16:12:34.981Z,82.21
2023-01-01T16:14:36.574Z,81.71
2023-01-01T16:16:43.281Z,82.17
2023-01-01T16:18:47.073Z,81.77
2023-01-01T16:20:48.728Z,82.15
2023-01-01T16:22:50.602Z,83.00
2023-01-01T16:24:52.197Z,83.63
2023-01-01T16:26:53.714Z,82.00
2023-01-01T16:28:55.269Z,83.18
2023-01-01T16:30:57.738Z,83.07
2023-01-01T16:33:01.012Z,83.36
2023-01-01T16:35:08.116Z,84.31
2023-01-01T16:37:13.040Z,84.30
2023-01-01T16:39:14.642Z,84.19
2023-01-01T16:41:17.914Z,84.51
2023-01-01T16:43:19.545Z,84.56
2023-01-01T16:45:21.077Z,84.63
2023-01-01T16:47:22.788Z,84.69
2023-01-01T16:49:25.775Z,85.60
2023-01-01T16:51:29.531Z,85.63
2023-01-01T16:53:31.335Z,85.67
2023-01-01T16:55:32.930Z,86.39
2023-01-01T16:57:34.615Z,86.25
2023-01-01T16:59:36.174Z,86.66
2023-01-01T17:01:37.851Z,86.36
2023-01-01T17:03:39.933Z,86.61
2023-01-01T17:05:44.677Z,86.80
2023-01-01T17:07:46.405Z,86.73
2023-01-01T17:09:47.933Z,86.15
2023-01-01T17:11:49.560Z,85.75
2023-01-01T17:13:51.169Z,86.14
2023-01-01T17:15:55.595Z,85.80
2023-01-01T17:17:58.191Z,85.99
2023-01-01T17:19:59.695Z,86.55
2023-01-01T17:22:02.643Z,86.45
2023-01-01T17:24:04.823Z,86.11
2023-01-01T17:26:08.242Z,86.54
2023-01-01T17:28:09.791Z,86.97
2023-01-01T17:30:12.826Z,87.15
2023-01-01T17:32:14.458Z,86.43
2023-01-01T17:34:24.818Z,86.67
2023-01-01T17:36:26.757Z,86.79
2023-01-01T17:38:29.710Z,87.01
2023-01-01T17:40:36.653Z,86.59
2023-01-01T17:42:38.707Z,87.00
2023-01-01T17:44:40.235Z,87.07
2023-01-01T17:46:41.832Z,87.87
2023-01-01T17:48:44.697Z,88.15
2023-01-01T17:50:46.248Z,88.71
2023-01-01T17:52:47.813Z,88.44
2023-01-01T17:54:50.807Z,88.30
2023-01-01T17:56:52.452Z,88.00
2023-01-01T17:58:54.290Z,88.41
2023-01-01T18:01:11.308Z,88.22
2023-01-01T18:03:13.784Z,89.20
2023-01-01T18:05:15.574Z,89.48
2023-01-01T18:07:17.157Z,89.82
2023-01-01T18:09:18.976Z,89.94
2023-01-01T18:11:23.791Z,89.88
2023-01-01T18:13:25.717Z,89.82
2023-01-01T18:15:27.278Z,90.20
2023-01-01T18:17:28.873Z,91.12
2023-01-01T18:19:30.462Z,90.60
2023-01-01T18:21:33.434Z,90.72
2023-01-01T18:23:36.210Z,90.32
2023-01-01T18:25:37.762Z,90.72
2023-01-01T18:27:40.639Z,91.50
2023-01-01T18:29:42.157Z,92.05
2023-01-01T18:31:46.715Z,92.31
2023-01-01T18:33:48.706Z,92.45
2023-01-01T18:35:50.493Z,92.78
2023-01-01T18:37:52.070Z,93.64
2023-01-01T18:39:53.588Z,93.36
2023-01-01T18:42:08.555Z,92.95
2023-01-01T18:44:18.495Z,93.25
2023-01-01T18:46:20.435Z,93.41
2023-01-01T18:48:22.030Z,92.08
2023-01-01T18:50:25.740Z,92.03
2023-01-01T18:52:28.650Z,90.81
2023-01-01T18:54:30.182Z,89.91
2023-01-01T18:56:31.796Z,89.29
2023-01-01T18:58:33.383Z,89.07
2023-01-01T19:00:36.784Z,88.91
2023-01-01T19:02:43.039Z,88.47
2023-01-01T19:04:44.679Z,88.47
2023-01-01T19:06:46.246Z,90.28
2023-01-01T19:08:47.947Z,89.77
2023-01-01T19:10:51.547Z,90.64
2023-01-01T19:12:54.633Z,89.69
2023-01-01T19:14:56.478Z,89.96
2023-01-01T19:17:00.107Z,89.60
2023-01-01T19:19:14.834Z,89.70
2023-01-01T19:21:22.071Z,89.25
2023-01-01T19:23:24.612Z,90.90
2023-01-01T19:25:36.104Z,90.58
2023-01-01T19:27:37.695Z,89.49
2023-01-01T19:29:42.164Z,89.59
2023-01-01T19:31:44.627Z,88.01
2023-01-01T19:33:49.886Z,89.59
2023-01-01T19:35:54.505Z,88.04
2023-01-01T19:37:55.983Z,86.66
2023-01-01T19:39:57.643Z,87.03
2023-01-01T19:41:59.225Z,87.67
2023-01-01T19:44:03.604Z,87.95
2023-01-01T19:46:07.607Z,87.44
2023-01-01T19:48:09.156Z,88.67
2023-01-01T19:50:15.421Z,88.86
2023-01-01T19:52:17.097Z,88.53
2023-01-01T19:54:19.018Z,88.93
2023-01-01T19:56:21.262Z,89.21
2023-01-01T19:58:23.352Z,88.13
2023-01-01T20:00:24.936Z,87.32
2023-01-01T20:02:46.124Z,87.17
2023-01-01T20:04:48.700Z,86.90
2023-01-01T20:06:51.933Z,86.72
2023-01-01T20:08:54.499Z,87.31
2023-01-01T20:10:56.527Z,87.13
2023-01-01T20:12:58.143Z,87.12
2023-01-01T20:14:59.753Z,87.17
2023-01-01T20:17:01.476Z,87.13
2023-01-01T20:19:07.530Z,87.13
2023-01-01T20:21:09.046Z,87.46
2023-01-01T20:23:12.161Z,87.99
2023-01-01T20:25:13.707Z,89.16
2023-01-01T20:27:16.585Z,89.68
2023-01-01T20:29:18.232Z,89.69
2023-01-01T20:31:19.921Z,89.78
2023-01-01T20:33:21.581Z,89.15
2023-01-01T20:35:23.203Z,89.03
2023-01-01T20:37:25.965Z,88.64
2023-01-01T20:39:29.232Z,88.79
2023-01-01T20:41:31.053Z,88.96
2023-01-01T20:43:32.602Z,89.30
2023-01-01T20:45:34.289Z,88.27
2023-01-01T20:47:36.183Z,89.07
2023-01-01T20:49:38.054Z,87.82
2023-01-01T20:51:39.902Z,88.64
2023-01-01T20:53:41.579Z,88.30
2023-01-01T20:55:44.514Z,88.80
2023-01-01T20:57:46.052Z,88.19
2023-01-01T20:59:50.202Z,89.10
2023-01-01T21:01:51.932Z,88.94
2023-01-01T21:03:53.585Z,88.84
2023-01-01T21:05:55.283Z,89.45
2023-01-01T21:07:57.104Z,89.21
2023-01-01T21:10:00.534Z,89.65
2023-01-01T21:12:04.465Z,89.92
2023-01-01T21:14:06.126Z,89.97
2023-01-01T21:16:17.417Z,90.86
2023-01-01T21:18:20.895Z,90.25
2023-01-01T21:20:22.481Z,90.39
2023-01-01T21:22:24.315Z,89.90
2023-01-01T21:24:28.365Z,90.22
2023-01-01T21:26:34.940Z,90.37
2023-01-01T21:28:37.955Z,91.52
2023-01-01T21:30:46.246Z,92.56
2023-01-01T21:32:49.130Z,92.25
2023-01-01T21:34:55.524Z,92.59
2023-01-01T21:37:01.692Z,91.49
2023-01-01T21:39:08.351Z,91.49
2023-01-01T21:41:15.386Z,92.13
2023-01-01T21:43:34.545Z,92.61
2023-01-01T21:45:40.319Z,92.77
2023-01-01T21:47:43.501Z,93.34
2023-01-01T21:49:45.539Z,92.35
2023-01-01T21:51:50.627Z,92.47
2023-01-01T21:54:03.091Z,92.09
2023-01-01T21:56:35.033Z,91.82
2023-01-01T21:58:44.765Z,92.83
2023-01-01T22:00:50.198Z,92.40
2023-01-01T22:02:54.973Z,92.83
2023-01-01T22:04:56.923Z,92.96
2023-01-01T22:07:00.758Z,93.83
2023-01-01T22:09:10.792Z,93.80
2023-01-01T22:11:22.214Z,94.25
2023-01-01T22:13:24.557Z,94.25
2023-01-01T22:15:36.717Z,93.09
2023-01-01T22:17:42.370Z,93.56
2023-01-01T22:19:44.049Z,93.25
2023-01-01T22:21:50.306Z,93.44
2023-01-01T22:23:59.406Z,93.82
2023-01-01T22:26:14.235Z,93.27
2023-01-01T22:28:19.771Z,94.02
2023-01-01T22:30:40.343Z,93.74
2023-01-01T22:32:44.597Z,94.12
2023-01-01T22:34:48.770Z,95.39
2023-01-01T22:36:50.376Z,94.01
2023-01-01T22:38:54.049Z,93.95
2023-01-01T22:40:55.763Z,95.07
2023-01-01T22:43:02.339Z,94.20
2023-01-01T22:45:11.213Z,93.94
2023-01-01T22:47:16.757Z,94.12
2023-01-01T22:49:22.823Z,93.32
2023-01-01T22:51:28.540Z,97.30
2023-01-01T22:53:30.116Z,97.30
2023-01-01T22:55:31.671Z,97.29
2023-01-01T22:57:33.221Z,96.52
2023-01-01T22:59:34.847Z,95.43
2023-01-01T23:01:36.433Z,95.39
2023-01-01T23:03:38.070Z,95.49
2023-01-01T23:05:41.276Z,95.14
2023-01-01T23:07:46.022Z,94.21
2023-01-01T23:09:48.411Z,93.58
2023-01-01T23:11:50.269Z,93.71
2023-01-01T23:13:52.155Z,94.62
2023-01-01T23:15:55.964Z,93.34
2023-01-01T23:18:00.451Z,93.37
2023-01-01T23:20:02.068Z,92.50
2023-01-01T23:22:08.157Z,93.51
2023-01-01T23:24:13.040Z,92.91
2023-01-01T23:26:14.745Z,92.73
2023-01-01T23:28:19.984Z,92.87
2023-01-01T23:30:22.995Z,92.85
2023-01-01T23:32:24.637Z,92.36
2023-01-01T23:34:26.253Z,92.42
2023-01-01T23:36:28.415Z,91.53
2023-01-01T23:38:31.928Z,91.56
2023-01-01T23:40:36.374Z,91.69
2023-01-01T23:42:37.999Z,91.72
2023-01-01T23:44:39.528Z,91.05
2023-01-01T23:46:41.254Z,91.72
2023-01-01T23:48:44.988Z,92.69
2023-01-01T23:50:47.230Z,92.85
2023-01-01T23:52:48.897Z,92.33
2023-01-01T23:54:52.035Z,91.83
2023-01-01T23:56:53.589Z,91.76
2023-01-01T23:58:55.913Z,91.35
